createdAt,value
2019-02-05T00:04:27.125Z,98730.75
2019-02-05T00:07:15.911Z,98716.62
2019-02-05T00:10:27.346Z,98492.52
2019-02-05T00:13:16.133Z,98715.34
2019-02-05T00:16:05.010Z,98717.84
2019-02-05T00:18:53.795Z,98447.91
2019-02-05T00:21:42.679Z,98721.70
2019-02-05T00:24:31.470Z,98725.89
2019-02-05T00:27:22.000Z,98549.64
2019-02-05T00:30:31.695Z,98731.47
2019-02-05T00:33:27.260Z,98742.16
2019-02-05T00:36:16.047Z,98740.73
2019-02-05T00:39:25.779Z,98742.43
2019-02-05T00:42:14.845Z,98740.55
2019-02-05T00:48:19.659Z,98729.02
2019-02-05T00:51:08.538Z,98724.03
2019-02-05T00:53:57.331Z,98728.06
2019-02-05T00:56:46.139Z,98706.27
2019-02-05T00:59:34.936Z,98690.30
2019-02-05T01:02:16.332Z,98691.76
2019-02-05T01:05:26.058Z,98697.52
2019-02-05T01:08:14.874Z,98709.32
2019-02-05T01:11:03.697Z,98705.34
2019-02-05T01:13:52.518Z,98604.00
2019-02-05T01:16:41.576Z,98722.39
2019-02-05T01:19:30.395Z,98726.11
2019-02-05T01:22:19.176Z,98727.14
2019-02-05T01:25:28.898Z,98660.14
2019-02-05T01:28:17.688Z,98725.72
2019-02-05T01:31:06.564Z,98721.80
2019-02-05T01:33:55.498Z,98721.22
2019-02-05T01:36:44.321Z,98532.14
2019-02-05T01:39:33.103Z,98721.22
2019-02-05T01:42:21.922Z,98718.42
2019-02-05T01:45:31.921Z,98563.09
2019-02-05T01:48:20.731Z,98719.03
2019-02-05T01:51:09.540Z,98722.73
2019-02-05T01:53:58.363Z,98735.00
2019-02-05T01:56:48.861Z,98724.17
2019-02-05T01:59:37.676Z,98720.37
2019-02-05T02:02:19.228Z,98714.89
2019-02-05T02:05:08.236Z,98715.02
2019-02-05T02:07:57.086Z,98716.31
2019-02-05T02:10:46.220Z,98714.80
2019-02-05T02:13:35.287Z,98710.31
2019-02-05T02:16:26.293Z,98555.90
2019-02-05T02:19:15.092Z,98461.98
2019-02-05T02:22:24.664Z,98546.35
2019-02-05T02:25:13.936Z,98698.54
2019-02-05T02:28:02.733Z,98696.65
2019-02-05T02:30:51.522Z,98698.18
2019-02-05T02:33:40.401Z,98434.61
2019-02-05T02:36:29.195Z,98667.43
2019-02-05T02:39:18.003Z,98699.53
2019-02-05T02:42:06.804Z,98702.03
2019-02-05T02:44:55.595Z,98704.95
2019-02-05T02:47:44.410Z,98707.41
2019-02-05T02:50:33.194Z,98708.48
2019-02-05T02:53:22.021Z,98427.88
2019-02-05T02:56:10.819Z,98663.92
2019-02-05T02:58:59.630Z,98703.52
2019-02-05T03:01:48.424Z,98562.44
2019-02-05T03:04:31.505Z,98705.39
2019-02-05T03:07:20.299Z,98635.40
2019-02-05T03:10:29.321Z,98716.65
2019-02-05T03:13:18.099Z,98635.45
2019-02-05T03:16:07.075Z,98705.37
2019-02-05T03:18:55.867Z,98707.11
2019-02-05T03:21:44.669Z,98711.23
2019-02-05T03:24:33.474Z,98699.07
2019-02-05T03:27:22.274Z,98546.56
2019-02-05T03:30:33.705Z,98705.03
2019-02-05T03:33:22.534Z,98704.05
2019-02-05T03:36:11.305Z,98701.86
2019-02-05T03:39:00.201Z,98702.88
2019-02-05T03:41:50.616Z,98707.83
2019-02-05T03:44:39.439Z,98716.14
2019-02-05T03:47:28.242Z,98719.06
2019-02-05T03:50:17.045Z,98719.86
2019-02-05T03:53:27.981Z,98633.41
2019-02-05T03:56:55.461Z,98718.09
2019-02-05T04:00:22.954Z,98720.58
2019-02-05T04:03:09.167Z,98722.31
2019-02-05T04:06:18.899Z,98731.46
2019-02-05T04:09:28.616Z,98729.20
2019-02-05T04:12:38.573Z,98657.13
2019-02-05T04:16:06.074Z,98727.80
2019-02-05T04:19:33.560Z,98714.11
2019-02-05T04:22:43.302Z,98718.80
2019-02-05T04:25:54.776Z,98723.83
2019-02-05T04:29:22.261Z,98488.58
2019-02-05T04:32:32.033Z,98721.22
2019-02-05T04:35:41.776Z,98718.61
2019-02-05T04:38:51.518Z,98457.75
2019-02-05T04:42:02.928Z,98711.56
2019-02-05T04:45:12.654Z,98712.28
2019-02-05T04:48:43.542Z,98718.69
2019-02-05T04:52:09.345Z,98714.94
2019-02-05T04:55:19.050Z,98714.84
2019-02-05T04:58:28.832Z,98718.50
2019-02-05T05:01:41.517Z,98718.08
2019-02-05T05:04:42.305Z,98474.16
2019-02-05T05:07:52.071Z,98724.94
2019-02-05T05:10:40.870Z,98726.06
2019-02-05T05:13:29.678Z,98531.38
2019-02-05T05:16:18.470Z,98734.72
2019-02-05T05:19:07.279Z,98729.19
2019-02-05T05:21:57.867Z,98732.93
2019-02-05T05:24:46.845Z,98733.58
2019-02-05T05:27:35.649Z,98729.27
2019-02-05T05:30:24.509Z,98583.23
2019-02-05T05:33:13.315Z,98721.95
2019-02-05T05:36:02.132Z,98726.52
2019-02-05T05:38:50.933Z,98725.64
2019-02-05T05:41:41.471Z,98725.94
2019-02-05T05:44:30.259Z,98561.64
2019-02-05T05:47:19.070Z,98732.81
2019-02-05T05:50:28.793Z,98737.75
2019-02-05T05:53:17.607Z,98730.82
2019-02-05T05:56:06.474Z,98628.75
2019-02-05T05:58:57.023Z,98733.73
2019-02-05T06:01:45.847Z,98735.94
2019-02-05T06:04:25.615Z,98621.96
2019-02-05T06:07:14.422Z,98736.02
2019-02-05T06:13:31.883Z,98738.69
2019-02-05T06:16:20.674Z,98740.41
2019-02-05T06:19:09.476Z,98742.39
2019-02-05T06:21:58.273Z,98673.06
2019-02-05T06:24:47.083Z,98740.36
2019-02-05T06:27:35.934Z,98748.45
2019-02-05T06:30:24.743Z,98758.73
2019-02-05T06:33:13.539Z,98754.68
2019-02-05T06:36:02.353Z,98753.32
2019-02-05T06:38:51.234Z,98604.70
2019-02-05T06:41:41.816Z,98762.54
2019-02-05T06:44:30.637Z,98759.70
2019-02-05T06:47:19.541Z,98757.45
2019-02-05T06:50:29.336Z,98765.06
2019-02-05T06:53:18.379Z,98768.80
2019-02-05T06:56:07.242Z,98775.24
2019-02-05T06:58:56.057Z,98717.53
2019-02-05T07:01:44.840Z,98784.50
2019-02-05T07:04:26.805Z,98782.70
2019-02-05T07:07:15.606Z,98787.97
2019-02-05T07:10:25.312Z,98788.32
2019-02-05T07:13:14.128Z,98556.16
2019-02-05T07:16:02.933Z,98797.90
2019-02-05T07:18:51.738Z,98794.09
2019-02-05T07:21:40.577Z,98798.83
2019-02-05T07:24:29.385Z,98626.55
2019-02-05T07:27:18.532Z,98799.23
2019-02-05T07:30:28.251Z,98806.19
2019-02-05T07:33:17.044Z,98594.07
2019-02-05T07:36:05.925Z,98816.02
2019-02-05T07:38:54.710Z,98787.38
2019-02-05T07:41:43.537Z,98825.19
2019-02-05T07:44:32.328Z,98826.92
2019-02-05T07:47:23.420Z,98726.88
2019-02-05T07:50:30.994Z,98833.73
2019-02-05T07:53:19.796Z,98835.02
2019-02-05T07:56:08.656Z,98829.78
2019-02-05T07:58:57.461Z,98830.28
2019-02-05T08:01:46.250Z,98834.30
2019-02-05T08:04:27.899Z,98838.63
2019-02-05T08:07:16.689Z,98834.91
2019-02-05T08:10:26.428Z,98844.57
2019-02-05T08:13:15.311Z,98850.10
2019-02-05T08:16:04.182Z,98848.39
2019-02-05T08:18:53.079Z,98851.81
2019-02-05T08:21:22.526Z,98843.53
2019-02-05T08:24:11.341Z,98842.13
2019-02-05T08:27:00.217Z,98847.42
2019-02-05T08:29:49.029Z,98764.50
2019-02-05T08:32:37.925Z,98722.81
2019-02-05T08:35:26.789Z,98838.92
2019-02-05T08:38:15.669Z,98633.77
2019-02-05T08:41:06.176Z,98838.91
2019-02-05T08:43:55.073Z,98849.08
2019-02-05T08:46:43.878Z,98845.86
2019-02-05T08:49:32.702Z,98842.63
2019-02-05T08:52:21.516Z,98845.25
2019-02-05T08:55:31.225Z,98682.06
2019-02-05T08:58:30.337Z,98847.13
2019-02-05T09:01:03.828Z,98850.08
2019-02-05T09:03:52.632Z,98860.02
2019-02-05T09:06:41.431Z,98867.14
2019-02-05T09:09:30.239Z,98872.39
2019-02-05T09:12:19.108Z,98864.30
2019-02-05T09:15:29.786Z,98872.67
2019-02-05T09:18:19.340Z,98874.07
2019-02-05T09:21:08.150Z,98876.06
2019-02-05T09:23:58.656Z,98880.98
2019-02-05T09:26:47.479Z,98879.53
2019-02-05T09:29:36.297Z,98884.77
2019-02-05T09:32:25.097Z,98888.48
2019-02-05T09:35:13.899Z,98887.04
2019-02-05T09:38:02.725Z,98892.15
2019-02-05T09:40:51.556Z,98894.20
2019-02-05T09:43:40.444Z,98892.44
2019-02-05T09:46:29.395Z,98901.14
2019-02-05T09:49:18.195Z,98901.14
2019-02-05T09:52:07.012Z,98908.92
2019-02-05T09:54:55.801Z,98908.38
2019-02-05T09:57:44.644Z,98914.43
2019-02-05T10:00:54.369Z,98671.27
2019-02-05T10:03:34.070Z,98786.33
2019-02-05T10:06:22.885Z,98917.05
2019-02-05T10:09:11.686Z,98922.73
2019-02-05T10:12:00.503Z,98914.38
2019-02-05T10:14:51.004Z,98921.30
2019-02-05T10:17:39.812Z,98921.36
2019-02-05T10:20:28.609Z,98918.58
2019-02-05T10:23:17.490Z,98923.91
2019-02-05T10:26:06.279Z,98918.74
2019-02-05T10:28:55.089Z,98789.69
2019-02-05T10:31:43.880Z,98865.55
2019-02-05T10:34:34.514Z,98922.78
2019-02-05T10:37:23.289Z,98927.62
2019-02-05T10:40:33.011Z,98920.94
2019-02-05T10:43:21.818Z,98926.47
2019-02-05T10:46:10.610Z,98918.80
2019-02-05T10:48:59.431Z,98917.13
2019-02-05T10:51:48.258Z,98901.02
2019-02-05T10:54:37.060Z,98787.50
2019-02-05T10:57:25.844Z,98912.37
2019-02-05T11:00:35.652Z,98907.10
2019-02-05T11:03:18.620Z,98922.65
2019-02-05T11:06:07.500Z,98921.92
2019-02-05T11:08:56.450Z,98920.61
2019-02-05T11:11:45.298Z,98919.82
2019-02-05T11:14:34.158Z,98921.10
2019-02-05T11:17:23.142Z,98926.09
2019-02-05T11:20:32.848Z,98848.27
2019-02-05T11:23:21.693Z,98914.96
2019-02-05T11:26:10.501Z,98919.94
2019-02-05T11:28:59.484Z,98919.39
2019-02-05T11:31:48.316Z,98920.16
2019-02-05T11:34:37.131Z,98913.84
2019-02-05T11:37:25.959Z,98920.88
2019-02-05T11:40:35.355Z,98919.84
2019-02-05T11:43:24.144Z,98916.96
2019-02-05T11:46:13.031Z,98923.33
2019-02-05T11:49:01.825Z,98922.44
2019-02-05T11:51:50.641Z,98912.56
2019-02-05T11:54:39.468Z,98857.22
2019-02-05T11:57:28.264Z,98919.20
2019-02-05T12:00:57.039Z,98913.11
2019-02-05T12:03:38.944Z,98909.72
2019-02-05T12:06:27.765Z,98904.86
2019-02-05T12:09:37.462Z,98906.52
2019-02-05T12:12:06.996Z,98895.81
2019-02-05T12:14:55.824Z,98906.48
2019-02-05T12:17:44.618Z,98901.48
2019-02-05T12:20:33.449Z,98898.20
2019-02-05T12:23:24.097Z,98755.32
2019-02-05T12:26:12.917Z,98890.44
2019-02-05T12:29:01.719Z,98900.47
2019-02-05T12:31:50.511Z,98904.19
2019-02-05T12:34:39.330Z,98893.02
2019-02-05T12:37:28.121Z,98893.88
2019-02-05T12:40:36.262Z,98890.34
2019-02-05T12:43:25.058Z,98891.42
2019-02-05T12:46:13.920Z,98883.38
2019-02-05T12:49:02.804Z,98888.17
2019-02-05T12:51:51.592Z,98888.14
2019-02-05T12:54:40.399Z,98888.02
2019-02-05T12:57:29.316Z,98658.02
2019-02-05T13:00:40.177Z,98882.26
2019-02-05T13:03:22.002Z,98877.56
2019-02-05T13:06:10.864Z,98872.48
2019-02-05T13:08:59.675Z,98871.13
2019-02-05T13:11:50.255Z,98691.73
2019-02-05T13:14:39.069Z,98864.45
2019-02-05T13:17:27.950Z,98867.77
2019-02-05T13:20:37.659Z,98867.59
2019-02-05T13:23:26.482Z,98864.17
2019-02-05T13:26:15.338Z,98860.06
2019-02-05T13:29:04.322Z,98860.17
2019-02-05T13:31:53.121Z,98868.94
2019-02-05T13:34:43.665Z,98865.36
2019-02-05T13:37:32.471Z,98869.75
2019-02-05T13:40:40.598Z,98870.64
2019-02-05T13:43:29.390Z,98877.03
2019-02-05T13:46:18.208Z,98880.62
2019-02-05T13:49:07.063Z,98881.08
2019-02-05T13:51:57.599Z,98893.58
2019-02-05T13:54:46.406Z,98822.41
2019-02-05T13:57:35.205Z,98888.78
2019-02-05T14:01:02.699Z,98896.30
2019-02-05T14:03:43.999Z,98894.86
2019-02-05T14:06:32.789Z,98902.94
2019-02-05T14:09:21.613Z,98907.17
2019-02-05T14:12:10.406Z,98771.58
2019-02-05T14:15:00.936Z,98898.31
2019-02-05T14:17:49.729Z,98833.15
2019-02-05T14:20:38.545Z,98911.55
2019-02-05T14:23:27.366Z,98907.20
2019-02-05T14:26:16.246Z,98917.81
2019-02-05T14:29:05.100Z,98793.24
2019-02-05T14:31:53.980Z,98919.95
2019-02-05T14:34:42.771Z,98921.78
2019-02-05T14:37:31.586Z,98925.08
2019-02-05T14:40:43.124Z,98920.84
2019-02-05T14:43:31.951Z,98921.62
2019-02-05T14:46:20.764Z,98926.98
2019-02-05T14:49:09.583Z,98925.27
2019-02-05T14:51:58.378Z,98727.02
2019-02-05T14:54:47.183Z,98924.52
2019-02-05T14:57:35.993Z,98918.93
2019-02-05T15:00:45.710Z,98924.60
2019-02-05T15:03:27.421Z,98936.67
2019-02-05T15:06:16.235Z,98932.88
2019-02-05T15:12:34.206Z,98929.55
2019-02-05T15:15:43.897Z,98737.48
2019-02-05T15:18:32.714Z,98928.14
2019-02-05T15:21:21.917Z,98711.43
2019-02-05T15:24:10.712Z,98923.15
2019-02-05T15:26:59.493Z,98932.67
2019-02-05T15:29:48.294Z,98934.95
2019-02-05T15:36:05.653Z,98933.73
2019-02-05T15:38:54.438Z,98931.73
2019-02-05T15:41:43.307Z,98709.02
2019-02-05T15:44:33.834Z,98934.09
2019-02-05T15:47:22.649Z,98936.89
2019-02-05T15:50:32.361Z,98933.97
2019-02-05T15:53:21.173Z,98937.33
2019-02-05T15:56:29.226Z,98690.08
2019-02-05T15:59:10.923Z,98944.50
2019-02-05T16:02:06.359Z,98800.23
2019-02-05T16:04:54.086Z,98939.70
2019-02-05T16:07:42.871Z,98734.73
2019-02-05T16:10:31.682Z,98691.80
2019-02-05T16:13:22.193Z,98943.71
2019-02-05T16:16:11.083Z,98939.94
2019-02-05T16:19:01.587Z,98911.91
2019-02-05T16:21:50.398Z,98798.56
2019-02-05T16:24:39.194Z,98936.78
2019-02-05T16:27:28.332Z,98932.41
2019-02-05T16:30:38.035Z,98935.56
2019-02-05T16:33:26.843Z,98937.88
2019-02-05T16:36:15.642Z,98781.97
2019-02-05T16:39:25.376Z,98782.83
2019-02-05T16:42:14.162Z,98944.97
2019-02-05T16:45:02.976Z,98946.31
2019-02-05T16:47:53.484Z,98921.02
2019-02-05T16:51:03.368Z,98948.00
2019-02-05T16:53:52.232Z,98958.66
2019-02-05T16:56:41.026Z,98956.74
2019-02-05T16:59:22.343Z,98959.42
2019-02-05T17:02:11.124Z,98952.33
2019-02-05T17:05:01.658Z,98958.29
2019-02-05T17:07:50.535Z,98956.11
2019-02-05T17:10:39.342Z,98963.20
2019-02-05T17:13:28.133Z,98962.13
2019-02-05T17:16:16.942Z,98963.81
2019-02-05T17:19:05.747Z,98962.77
2019-02-05T17:21:54.565Z,98957.37
2019-02-05T17:24:43.375Z,98958.06
2019-02-05T17:27:32.438Z,98966.23
2019-02-05T17:30:43.891Z,98743.67
2019-02-05T17:33:32.709Z,98976.00
2019-02-05T17:36:21.495Z,98739.09
2019-02-05T17:39:31.199Z,98846.27
2019-02-05T17:42:20.075Z,98971.61
2019-02-05T17:45:29.779Z,98962.17
2019-02-05T17:48:18.735Z,98960.42
2019-02-05T17:51:07.555Z,98964.64
2019-02-05T17:53:56.357Z,98958.30
2019-02-05T17:56:46.882Z,98958.52
2019-02-05T17:59:28.523Z,98955.38
2019-02-05T18:02:17.339Z,98891.34
2019-02-05T18:05:27.047Z,98957.34
2019-02-05T18:08:17.581Z,98959.20
2019-02-05T18:11:06.948Z,98734.61
2019-02-05T18:13:55.751Z,98958.31
2019-02-05T18:16:45.458Z,98957.92
2019-02-05T18:19:35.068Z,98960.19
2019-02-05T18:22:23.867Z,98955.92
2019-02-05T18:25:33.614Z,98965.91
2019-02-05T18:28:22.394Z,98967.84
2019-02-05T18:31:11.401Z,98968.41
2019-02-05T18:34:00.168Z,98721.13
2019-02-05T18:36:48.966Z,98970.67
2019-02-05T18:39:39.866Z,98964.00
2019-02-05T18:42:28.281Z,98964.35
2019-02-05T18:45:38.011Z,98961.61
2019-02-05T18:48:28.522Z,98966.33
2019-02-05T18:51:17.326Z,98888.18
2019-02-05T18:54:06.189Z,98965.44
2019-02-05T18:56:45.911Z,98966.63
2019-02-05T18:59:34.709Z,98746.39
2019-02-05T19:02:23.510Z,98970.30
2019-02-05T19:05:13.088Z,98765.73
2019-02-05T19:08:03.954Z,98970.56
2019-02-05T19:10:52.748Z,98961.30
2019-02-05T19:13:41.778Z,98967.89
2019-02-05T19:16:30.614Z,98967.76
2019-02-05T19:19:19.421Z,98969.19
2019-02-05T19:22:08.205Z,98967.56
2019-02-05T19:28:07.789Z,98969.48
2019-02-05T19:31:05.403Z,98971.95
2019-02-05T19:33:54.285Z,98968.45
2019-02-05T19:36:43.072Z,98975.80
2019-02-05T19:39:31.884Z,98918.05
2019-02-05T19:42:20.693Z,98970.41
2019-02-05T19:51:24.336Z,98967.25
2019-02-05T19:54:13.145Z,98968.98
2019-02-05T19:57:01.934Z,98859.41
2019-02-05T19:59:43.566Z,98976.45
2019-02-05T20:02:32.360Z,98716.00
2019-02-05T20:05:21.352Z,98729.90
2019-02-05T20:08:11.778Z,98965.52
2019-02-05T20:11:00.624Z,98969.35
2019-02-05T20:13:49.428Z,98737.88
2019-02-05T20:16:38.238Z,98973.13
2019-02-05T20:19:27.034Z,98976.14
2019-02-05T20:22:15.843Z,98976.29
2019-02-05T20:28:20.049Z,98974.95
2019-02-05T20:31:08.912Z,98975.52
2019-02-05T20:33:57.742Z,98822.21
2019-02-05T20:36:46.560Z,98719.83
2019-02-05T20:39:35.681Z,98975.27
2019-02-05T20:42:24.566Z,98969.23
2019-02-05T20:48:42.251Z,98969.53
2019-02-05T20:51:31.056Z,98965.76
2019-02-05T20:54:19.862Z,98964.94
2019-02-05T20:57:01.423Z,98965.63
2019-02-05T20:59:50.240Z,98948.70
2019-02-05T21:02:39.037Z,98958.48
2019-02-05T21:05:27.968Z,98965.39
2019-02-05T21:08:18.476Z,98967.89
2019-02-05T21:11:07.337Z,98958.31
2019-02-05T21:13:56.146Z,98964.36
2019-02-05T21:16:44.953Z,98965.45
2019-02-05T21:19:33.755Z,98956.97
2019-02-05T21:22:22.546Z,98955.05
2019-02-05T21:25:32.393Z,98959.45
2019-02-05T21:28:21.145Z,98810.16
2019-02-05T21:31:09.953Z,98953.34
2019-02-05T21:33:58.745Z,98959.14
2019-02-05T21:36:47.562Z,98954.44
2019-02-05T21:39:36.366Z,98962.11
2019-02-05T21:42:25.162Z,98973.62
2019-02-05T21:45:36.580Z,98973.18
2019-02-05T21:48:25.391Z,98967.21
2019-02-05T21:51:14.195Z,98967.34
2019-02-05T21:54:02.990Z,98960.95
2019-02-05T21:56:51.795Z,98958.96
2019-02-05T21:59:40.628Z,98967.36
2019-02-05T22:02:29.521Z,98954.90
2019-02-05T22:05:18.322Z,98907.77
2019-02-05T22:08:08.773Z,98957.48
2019-02-05T22:10:57.664Z,98959.68
2019-02-05T22:13:46.489Z,98956.25
2019-02-05T22:16:35.359Z,98951.99
2019-02-05T22:19:25.881Z,98707.31
2019-02-05T22:22:14.689Z,98951.06
2019-02-05T22:28:31.961Z,98951.17
2019-02-05T22:31:20.912Z,98663.20
2019-02-05T22:34:09.746Z,98954.53
2019-02-05T22:36:58.529Z,98952.50
2019-02-05T22:39:47.341Z,98676.13
2019-02-05T22:42:29.042Z,98949.03
2019-02-05T22:45:41.112Z,98682.61
2019-02-05T22:48:29.583Z,98939.63
2019-02-05T22:51:18.400Z,98944.28
2019-02-05T22:53:59.885Z,98953.85
2019-02-05T22:56:48.694Z,98952.88
2019-02-05T22:59:39.227Z,98707.33
2019-02-05T23:05:56.760Z,98953.14
2019-02-05T23:08:45.563Z,98952.94
2019-02-05T23:12:13.231Z,98952.73
2019-02-05T23:15:23.328Z,98953.80
2019-02-05T23:18:12.141Z,98945.17
2019-02-05T23:21:00.950Z,98949.42
2019-02-05T23:23:50.073Z,98947.41
2019-02-05T23:26:40.586Z,98934.80
2019-02-05T23:29:29.405Z,98662.15
2019-02-05T23:32:19.941Z,98929.63
2019-02-05T23:35:08.908Z,98926.55
2019-02-05T23:37:57.721Z,98938.80
2019-02-05T23:40:46.532Z,98937.35
2019-02-05T23:43:35.323Z,98713.97
2019-02-05T23:46:24.141Z,98943.03
2019-02-05T23:49:12.935Z,98676.53
2019-02-05T23:52:01.750Z,98944.82
2019-02-05T23:54:43.359Z,98939.91
2019-02-05T23:57:32.236Z,98943.58
